sensor_id;sensor_type;location;lat;lon;timestamp;pressure;altitude;pressure_sealevel;temperature;humidity
56630;BME280;42502;40.732;-74.254;2023-04-12T13:32:29;100261.28;;;23.99;32.02
56630;BME280;42502;40.732;-74.254;2023-04-12T13:34:30;100266.09;;;23.99;32.80
56630;BME280;42502;40.732;-74.254;2023-04-12T13:36:31;100258.84;;;23.98;32.48
56630;BME280;42502;40.732;-74.254;2023-04-12T13:38:32;100249.53;;;23.93;32.24
56630;BME280;42502;40.732;-74.254;2023-04-12T13:40:34;100251.16;;;23.94;32.25
56630;BME280;42502;40.732;-74.254;2023-04-12T13:42:37;100258.00;;;23.93;32.36
56630;BME280;42502;40.732;-74.254;2023-04-12T13:44:41;100243.88;;;23.90;32.20
56630;BME280;42502;40.732;-74.254;2023-04-12T13:46:42;100255.19;;;23.93;32.33
56630;BME280;42502;40.732;-74.254;2023-04-12T13:48:43;100259.19;;;23.92;32.52
56630;BME280;42502;40.732;-74.254;2023-04-12T13:50:44;100249.94;;;23.95;32.42
56630;BME280;42502;40.732;-74.254;2023-04-12T13:52:50;100245.53;;;23.94;32.62
56630;BME280;42502;40.732;-74.254;2023-04-12T13:54:51;100246.75;;;23.97;32.52
56630;BME280;42502;40.732;-74.254;2023-04-12T13:56:52;100243.53;;;23.99;32.73
56630;BME280;42502;40.732;-74.254;2023-04-12T13:58:53;100236.69;;;24.00;32.59
56630;BME280;42502;40.732;-74.254;2023-04-12T14:00:54;100242.34;;;24.00;32.28
56630;BME280;42502;40.732;-74.254;2023-04-12T14:02:57;100235.50;;;24.01;32.40
56630;BME280;42502;40.732;-74.254;2023-04-12T14:04:58;100238.34;;;24.01;32.38
56630;BME280;42502;40.732;-74.254;2023-04-12T14:07:02;100237.09;;;24.02;32.33
56630;BME280;42502;40.732;-74.254;2023-04-12T14:09:03;100239.53;;;24.00;32.10
56630;BME280;42502;40.732;-74.254;2023-04-12T14:11:05;100239.94;;;24.02;32.08
56630;BME280;42502;40.732;-74.254;2023-04-12T14:13:06;100245.19;;;24.03;32.14
56630;BME280;42502;40.732;-74.254;2023-04-12T14:15:07;100245.16;;;24.00;32.38
56630;BME280;42502;40.732;-74.254;2023-04-12T14:17:08;100238.34;;;24.04;32.24
56630;BME280;42502;40.732;-74.254;2023-04-12T14:19:09;100251.66;;;24.04;32.20
56630;BME280;42502;40.732;-74.254;2023-04-12T14:21:10;100243.53;;;23.99;31.89
56630;BME280;42502;40.732;-74.254;2023-04-12T14:23:11;100248.00;;;24.03;31.88
56630;BME280;42502;40.732;-74.254;2023-04-12T14:25:12;100254.09;;;24.05;32.01
56630;BME280;42502;40.732;-74.254;2023-04-12T14:27:13;100245.63;;;24.05;32.09
56630;BME280;42502;40.732;-74.254;2023-04-12T14:29:14;100256.09;;;24.05;32.07
56630;BME280;42502;40.732;-74.254;2023-04-12T14:31:15;100240.38;;;24.04;32.14
56630;BME280;42502;40.732;-74.254;2023-04-12T14:33:16;100244.41;;;24.06;32.14
56630;BME280;42502;40.732;-74.254;2023-04-12T14:35:17;100249.66;;;24.08;31.99
56630;BME280;42502;40.732;-74.254;2023-04-12T14:37:18;100237.97;;;24.09;31.91
56630;BME280;42502;40.732;-74.254;2023-04-12T14:39:19;100243.63;;;24.09;31.88
56630;BME280;42502;40.732;-74.254;2023-04-12T14:41:20;100249.72;;;24.11;31.89
56630;BME280;42502;40.732;-74.254;2023-04-12T14:43:20;100238.81;;;24.10;31.90
56630;BME280;42502;40.732;-74.254;2023-04-12T14:45:21;100235.22;;;24.13;31.75
56630;BME280;42502;40.732;-74.254;2023-04-12T14:47:22;100241.25;;;24.11;32.03
56630;BME280;42502;40.732;-74.254;2023-04-12T14:49:24;100216.97;;;24.03;31.79
56630;BME280;42502;40.732;-74.254;2023-04-12T14:51:24;100249.34;;;24.17;32.13
56630;BME280;42502;40.732;-74.254;2023-04-12T14:53:27;100247.31;;;24.17;31.88
56630;BME280;42502;40.732;-74.254;2023-04-12T14:55:28;100246.97;;;24.19;31.96
56630;BME280;42502;40.732;-74.254;2023-04-12T14:57:28;100245.72;;;24.16;31.70
56630;BME280;42502;40.732;-74.254;2023-04-12T14:59:35;100242.91;;;24.20;31.69
56630;BME280;42502;40.732;-74.254;2023-04-12T15:01:40;100241.31;;;24.19;31.75
56630;BME280;42502;40.732;-74.254;2023-04-12T15:03:40;100248.63;;;24.23;31.65
56630;BME280;42502;40.732;-74.254;2023-04-12T15:05:41;100236.09;;;24.24;31.47
56630;BME280;42502;40.732;-74.254;2023-04-12T15:07:45;100231.28;;;24.25;31.80
56630;BME280;42502;40.732;-74.254;2023-04-12T15:09:46;100237.72;;;24.25;31.80
56630;BME280;42502;40.732;-74.254;2023-04-12T15:11:49;100238.16;;;24.27;31.68
56630;BME280;42502;40.732;-74.254;2023-04-12T15:13:57;100231.31;;;24.28;31.72
56630;BME280;42502;40.732;-74.254;2023-04-12T15:15:58;100237.38;;;24.30;31.68
56630;BME280;42502;40.732;-74.254;2023-04-12T15:17:59;100224.88;;;24.28;31.66
56630;BME280;42502;40.732;-74.254;2023-04-12T15:19:59;100230.94;;;24.34;31.75
56630;BME280;42502;40.732;-74.254;2023-04-12T15:22:08;100234.59;;;24.34;31.63
56630;BME280;42502;40.732;-74.254;2023-04-12T15:24:11;100244.66;;;24.35;31.54
56630;BME280;42502;40.732;-74.254;2023-04-12T15:26:15;100236.19;;;24.35;31.75
56630;BME280;42502;40.732;-74.254;2023-04-12T15:28:18;100228.16;;;24.37;31.65
56630;BME280;42502;40.732;-74.254;2023-04-12T15:30:19;100229.38;;;24.40;31.70
56630;BME280;42502;40.732;-74.254;2023-04-12T15:32:20;100231.78;;;24.41;31.63
56630;BME280;42502;40.732;-74.254;2023-04-12T15:34:22;100205.13;;;24.32;31.48
56630;BME280;42502;40.732;-74.254;2023-04-12T15:36:27;100222.97;;;24.46;31.55
56630;BME280;42502;40.732;-74.254;2023-04-12T15:38:42;100216.09;;;24.44;31.73
56630;BME280;42502;40.732;-74.254;2023-04-12T15:40:44;100227.03;;;24.49;31.46
56630;BME280;42502;40.732;-74.254;2023-04-12T15:42:45;100210.50;;;24.51;31.70
56630;BME280;42502;40.732;-74.254;2023-04-12T15:44:45;100199.59;;;24.50;31.58
56630;BME280;42502;40.732;-74.254;2023-04-12T15:46:46;100187.06;;;24.47;31.74
56630;BME280;42502;40.732;-74.254;2023-04-12T15:48:47;100191.59;;;24.55;31.50
56630;BME280;42502;40.732;-74.254;2023-04-12T15:50:48;100176.22;;;24.53;31.28
56630;BME280;42502;40.732;-74.254;2023-04-12T15:52:54;100184.78;;;24.60;31.37
56630;BME280;42502;40.732;-74.254;2023-04-12T15:54:57;100187.22;;;24.61;31.51
56630;BME280;42502;40.732;-74.254;2023-04-12T15:57:00;100184.00;;;24.63;31.44
56630;BME280;42502;40.732;-74.254;2023-04-12T15:59:08;100173.91;;;24.65;31.64
56630;BME280;42502;40.732;-74.254;2023-04-12T16:01:10;100171.06;;;24.62;31.46
56630;BME280;42502;40.732;-74.254;2023-04-12T16:03:11;100169.50;;;24.68;31.68
56630;BME280;42502;40.732;-74.254;2023-04-12T16:05:16;100177.97;;;24.72;31.50
56630;BME280;42502;40.732;-74.254;2023-04-12T16:07:17;100158.63;;;24.74;31.50
56630;BME280;42502;40.732;-74.254;2023-04-12T16:09:18;100163.50;;;24.77;31.43
56630;BME280;42502;40.732;-74.254;2023-04-12T16:11:22;100153.38;;;24.72;31.26
56630;BME280;42502;40.732;-74.254;2023-04-12T16:13:25;100152.19;;;24.77;31.67
56630;BME280;42502;40.732;-74.254;2023-04-12T16:15:26;100159.88;;;24.80;31.42
56630;BME280;42502;40.732;-74.254;2023-04-12T16:17:27;100153.84;;;24.85;31.41
56630;BME280;42502;40.732;-74.254;2023-04-12T16:19:28;100144.16;;;24.86;31.26
56630;BME280;42502;40.732;-74.254;2023-04-12T16:21:29;100139.75;;;24.89;31.73
56630;BME280;42502;40.732;-74.254;2023-04-12T16:23:30;100147.41;;;24.92;31.52
56630;BME280;42502;40.732;-74.254;2023-04-12T16:25:37;100145.41;;;24.92;31.50
56630;BME280;42502;40.732;-74.254;2023-04-12T16:27:39;100135.31;;;24.95;31.48
56630;BME280;42502;40.732;-74.254;2023-04-12T16:29:44;100126.06;;;24.98;31.51
56630;BME280;42502;40.732;-74.254;2023-04-12T16:31:45;100136.13;;;24.99;31.42
56630;BME280;42502;40.732;-74.254;2023-04-12T16:33:50;100138.56;;;25.00;31.40
56630;BME280;42502;40.732;-74.254;2023-04-12T16:35:51;100141.00;;;25.06;31.39
56630;BME280;42502;40.732;-74.254;2023-04-12T16:37:52;100138.59;;;25.08;31.44
56630;BME280;42502;40.732;-74.254;2023-04-12T16:39:53;100137.78;;;25.11;31.26
56630;BME280;42502;40.732;-74.254;2023-04-12T16:41:54;100130.53;;;25.13;31.55
56630;BME280;42502;40.732;-74.254;2023-04-12T16:43:58;100140.66;;;25.14;31.47
56630;BME280;42502;40.732;-74.254;2023-04-12T16:46:04;100129.34;;;25.18;31.33
56630;BME280;42502;40.732;-74.254;2023-04-12T16:48:05;100136.22;;;25.21;31.32
56630;BME280;42502;40.732;-74.254;2023-04-12T16:50:07;100114.00;;;25.19;31.72
56630;BME280;42502;40.732;-74.254;2023-04-12T16:52:08;100117.66;;;25.27;31.63
56630;BME280;42502;40.732;-74.254;2023-04-12T16:54:09;100120.09;;;25.28;31.16
56630;BME280;42502;40.732;-74.254;2023-04-12T16:56:10;100093.03;;;25.31;31.63
56630;BME280;42502;40.732;-74.254;2023-04-12T16:58:11;100114.06;;;25.33;31.38
56630;BME280;42502;40.732;-74.254;2023-04-12T17:00:13;100115.28;;;25.36;31.38
56630;BME280;42502;40.732;-74.254;2023-04-12T17:02:21;100099.91;;;25.37;31.35
56630;BME280;42502;40.732;-74.254;2023-04-12T17:04:23;100104.38;;;25.42;31.52
56630;BME280;42502;40.732;-74.254;2023-04-12T17:06:24;100099.94;;;25.44;31.28
56630;BME280;42502;40.732;-74.254;2023-04-12T17:08:27;100099.53;;;25.46;31.36
56630;BME280;42502;40.732;-74.254;2023-04-12T17:10:28;100082.94;;;25.37;31.46
56630;BME280;42502;40.732;-74.254;2023-04-12T17:12:28;100099.94;;;25.51;31.39
56630;BME280;42502;40.732;-74.254;2023-04-12T17:14:29;100104.78;;;25.54;31.19
56630;BME280;42502;40.732;-74.254;2023-04-12T17:16:30;100104.00;;;25.58;31.63
56630;BME280;42502;40.732;-74.254;2023-04-12T17:18:31;100094.69;;;25.61;31.30
56630;BME280;42502;40.732;-74.254;2023-04-12T17:20:34;100090.25;;;25.63;31.41
56630;BME280;42502;40.732;-74.254;2023-04-12T17:22:35;100086.59;;;25.63;31.41
56630;BME280;42502;40.732;-74.254;2023-04-12T17:24:36;100084.59;;;25.67;31.53
56630;BME280;42502;40.732;-74.254;2023-04-12T17:26:37;100094.69;;;25.71;31.20
56630;BME280;42502;40.732;-74.254;2023-04-12T17:28:39;100072.06;;;25.71;31.25
56630;BME280;42502;40.732;-74.254;2023-04-12T17:30:40;100083.00;;;25.77;31.60
56630;BME280;42502;40.732;-74.254;2023-04-12T17:32:44;100087.00;;;25.79;31.37
56630;BME280;42502;40.732;-74.254;2023-04-12T17:34:46;100071.25;;;25.82;31.16
56630;BME280;42502;40.732;-74.254;2023-04-12T17:36:47;100067.63;;;25.85;31.36
56630;BME280;42502;40.732;-74.254;2023-04-12T17:38:54;100064.78;;;25.85;31.06
56630;BME280;42502;40.732;-74.254;2023-04-12T17:40:55;100053.88;;;25.91;31.46
56630;BME280;42502;40.732;-74.254;2023-04-12T17:42:56;100058.72;;;25.94;31.16
56630;BME280;42502;40.732;-74.254;2023-04-12T17:44:59;100041.34;;;25.95;31.29
56630;BME280;42502;40.732;-74.254;2023-04-12T17:47:00;100045.81;;;26.00;31.35
56630;BME280;42502;40.732;-74.254;2023-04-12T17:49:01;100044.56;;;26.01;31.39
56630;BME280;42502;40.732;-74.254;2023-04-12T17:51:14;100027.19;;;26.02;31.40
56630;BME280;42502;40.732;-74.254;2023-04-12T17:53:15;100029.59;;;26.08;31.52
56630;BME280;42502;40.732;-74.254;2023-04-12T17:55:16;100023.53;;;26.09;31.49
56630;BME280;42502;40.732;-74.254;2023-04-12T17:57:23;100023.53;;;26.13;31.10
56630;BME280;42502;40.732;-74.254;2023-04-12T17:59:27;100013.41;;;26.15;31.36
56630;BME280;42502;40.732;-74.254;2023-04-12T18:01:28;100020.28;;;26.18;31.27
56630;BME280;42502;40.732;-74.254;2023-04-12T18:03:28;100021.47;;;26.20;31.35
56630;BME280;42502;40.732;-74.254;2023-04-12T18:05:30;100032.81;;;26.24;31.43
56630;BME280;42502;40.732;-74.254;2023-04-12T18:07:32;100019.03;;;26.26;31.16
56630;BME280;42502;40.732;-74.254;2023-04-12T18:09:33;100008.94;;;26.29;31.50
56630;BME280;42502;40.732;-74.254;2023-04-12T18:11:34;100010.09;;;26.31;31.35
56630;BME280;42502;40.732;-74.254;2023-04-12T18:13:38;100008.50;;;26.34;31.02
56630;BME280;42502;40.732;-74.254;2023-04-12T18:15:38;100000.00;;;26.37;31.45
56630;BME280;42502;40.732;-74.254;2023-04-12T18:17:39;100017.38;;;26.39;31.34
56630;BME280;42502;40.732;-74.254;2023-04-12T18:19:43;100006.84;;;26.44;31.44
56630;BME280;42502;40.732;-74.254;2023-04-12T18:21:46;100004.38;;;26.49;31.47
56630;BME280;42502;40.732;-74.254;2023-04-12T18:23:47;100003.97;;;26.51;31.38
56630;BME280;42502;40.732;-74.254;2023-04-12T18:25:48;99996.66;;;26.53;31.32
56630;BME280;42502;40.732;-74.254;2023-04-12T18:27:49;100005.16;;;26.57;31.37
56630;BME280;42502;40.732;-74.254;2023-04-12T18:29:50;99997.06;;;26.59;31.56
56630;BME280;42502;40.732;-74.254;2023-04-12T18:31:51;99983.28;;;26.61;31.53
56630;BME280;42502;40.732;-74.254;2023-04-12T18:33:52;99995.41;;;26.65;31.36
56630;BME280;42502;40.732;-74.254;2023-04-12T18:35:53;99982.44;;;26.64;31.75
56630;BME280;42502;40.732;-74.254;2023-04-12T18:38:03;99984.06;;;26.69;31.68
56630;BME280;42502;40.732;-74.254;2023-04-12T18:40:04;99980.03;;;26.70;31.43
56630;BME280;42502;40.732;-74.254;2023-04-12T18:42:06;99990.91;;;26.75;31.38
56630;BME280;42502;40.732;-74.254;2023-04-12T18:44:11;99997.78;;;26.77;31.65
56630;BME280;42502;40.732;-74.254;2023-04-12T18:46:17;99991.28;;;26.81;31.41
56630;BME280;42502;40.732;-74.254;2023-04-12T18:48:18;99992.88;;;26.85;31.56
56630;BME280;42502;40.732;-74.254;2023-04-12T18:50:19;99983.16;;;26.86;31.52
56630;BME280;42502;40.732;-74.254;2023-04-12T18:52:22;99995.69;;;26.89;31.59
56630;BME280;42502;40.732;-74.254;2023-04-12T18:54:24;99983.53;;;26.92;31.37
56630;BME280;42502;40.732;-74.254;2023-04-12T18:56:26;99975.09;;;26.85;31.62
56630;BME280;42502;40.732;-74.254;2023-04-12T18:58:27;99985.94;;;26.97;31.61
56630;BME280;42502;40.732;-74.254;2023-04-12T19:00:28;99974.19;;;26.99;31.27
56630;BME280;42502;40.732;-74.254;2023-04-12T19:02:35;99957.97;;;26.99;31.09
56630;BME280;42502;40.732;-74.254;2023-04-12T19:04:36;99962.00;;;27.02;31.60
56630;BME280;42502;40.732;-74.254;2023-04-12T19:06:41;99961.13;;;27.08;31.53
56630;BME280;42502;40.732;-74.254;2023-04-12T19:08:43;99968.44;;;27.09;31.63
56630;BME280;42502;40.732;-74.254;2023-04-12T19:10:44;99973.25;;;27.12;31.61
56630;BME280;42502;40.732;-74.254;2023-04-12T19:12:45;99964.34;;;27.14;31.35
56630;BME280;42502;40.732;-74.254;2023-04-12T19:14:47;99962.28;;;27.18;31.39
56630;BME280;42502;40.732;-74.254;2023-04-12T19:16:48;99968.34;;;27.20;31.54
56630;BME280;42502;40.732;-74.254;2023-04-12T19:18:50;99950.91;;;27.22;31.45
56630;BME280;42502;40.732;-74.254;2023-04-12T19:20:54;99955.38;;;27.23;31.13
56630;BME280;42502;40.732;-74.254;2023-04-12T19:22:55;99949.22;;;27.28;31.65
56630;BME280;42502;40.732;-74.254;2023-04-12T19:24:56;99954.06;;;27.31;31.23
56630;BME280;42502;40.732;-74.254;2023-04-12T19:26:57;99944.38;;;27.32;31.27
56630;BME280;42502;40.732;-74.254;2023-04-12T19:28:57;99947.59;;;27.34;31.63
56630;BME280;42502;40.732;-74.254;2023-04-12T19:30:59;99941.91;;;27.34;31.15
56630;BME280;42502;40.732;-74.254;2023-04-12T19:33:03;99940.66;;;27.39;31.18
56630;BME280;42502;40.732;-74.254;2023-04-12T19:35:04;99936.22;;;27.38;31.23
56630;BME280;42502;40.732;-74.254;2023-04-12T19:37:07;99929.72;;;27.41;31.31
56630;BME280;42502;40.732;-74.254;2023-04-12T19:39:08;99931.28;;;27.45;31.18
56630;BME280;42502;40.732;-74.254;2023-04-12T19:41:09;99941.38;;;27.46;31.46
56630;BME280;42502;40.732;-74.254;2023-04-12T19:43:10;99945.00;;;27.51;31.25
56630;BME280;42502;40.732;-74.254;2023-04-12T19:45:13;99925.53;;;27.53;30.99
56630;BME280;42502;40.732;-74.254;2023-04-12T19:47:14;99938.88;;;27.56;31.07
56630;BME280;42502;40.732;-74.254;2023-04-12T19:49:15;99929.13;;;27.57;31.28
56630;BME280;42502;40.732;-74.254;2023-04-12T19:51:16;99927.50;;;27.59;31.10
56630;BME280;42502;40.732;-74.254;2023-04-12T19:53:17;99929.94;;;27.57;31.33
56630;BME280;42502;40.732;-74.254;2023-04-12T19:55:19;99923.41;;;27.64;31.21
56630;BME280;42502;40.732;-74.254;2023-04-12T19:57:21;99930.25;;;27.67;31.14
56630;BME280;42502;40.732;-74.254;2023-04-12T19:59:22;99927.00;;;27.68;31.49
56630;BME280;42502;40.732;-74.254;2023-04-12T20:01:26;99920.50;;;27.71;31.17
56630;BME280;42502;40.732;-74.254;2023-04-12T20:03:27;99927.38;;;27.70;31.32
56630;BME280;42502;40.732;-74.254;2023-04-12T20:05:28;99917.19;;;27.76;31.10
56630;BME280;42502;40.732;-74.254;2023-04-12T20:07:29;99915.97;;;27.77;31.08
56630;BME280;42502;40.732;-74.254;2023-04-12T20:09:30;99908.19;;;27.81;30.97
56630;BME280;42502;40.732;-74.254;2023-04-12T20:11:31;99900.50;;;27.82;31.25
56630;BME280;42502;40.732;-74.254;2023-04-12T20:13:31;99906.16;;;27.82;30.63
56630;BME280;42502;40.732;-74.254;2023-04-12T20:15:35;99902.84;;;27.87;30.96
56630;BME280;42502;40.732;-74.254;2023-04-12T20:17:39;99897.56;;;27.89;31.32
56630;BME280;42502;40.732;-74.254;2023-04-12T20:19:43;99886.59;;;27.91;31.04
56630;BME280;42502;40.732;-74.254;2023-04-12T20:21:47;99877.66;;;27.93;31.27
56630;BME280;42502;40.732;-74.254;2023-04-12T20:23:48;99885.34;;;27.96;30.87
56630;BME280;42502;40.732;-74.254;2023-04-12T20:25:52;99881.66;;;27.99;30.91
56630;BME280;42502;40.732;-74.254;2023-04-12T20:27:57;99888.97;;;28.00;31.44
56630;BME280;42502;40.732;-74.254;2023-04-12T20:29:58;99895.00;;;28.02;31.34
56630;BME280;42502;40.732;-74.254;2023-04-12T20:32:00;99896.63;;;28.03;31.40
56630;BME280;42502;40.732;-74.254;2023-04-12T20:34:05;99885.63;;;28.05;31.25
56630;BME280;42502;40.732;-74.254;2023-04-12T20:36:06;99884.78;;;28.08;31.32
56630;BME280;42502;40.732;-74.254;2023-04-12T20:38:07;99876.63;;;28.10;30.99
56630;BME280;42502;40.732;-74.254;2023-04-12T20:40:08;99887.13;;;28.13;31.12
56630;BME280;42502;40.732;-74.254;2023-04-12T20:42:09;99881.84;;;28.15;31.29
56630;BME280;42502;40.732;-74.254;2023-04-12T20:44:18;99872.63;;;28.08;30.94
56630;BME280;42502;40.732;-74.254;2023-04-12T20:46:19;99866.84;;;28.15;31.03
56630;BME280;42502;40.732;-74.254;2023-04-12T20:48:24;99872.44;;;28.22;31.06
56630;BME280;42502;40.732;-74.254;2023-04-12T20:50:25;99872.41;;;28.26;31.01
56630;BME280;42502;40.732;-74.254;2023-04-12T20:52:26;99869.13;;;28.27;31.38
56630;BME280;42502;40.732;-74.254;2023-04-12T20:54:27;99882.91;;;28.29;31.04
56630;BME280;42502;40.732;-74.254;2023-04-12T20:56:34;99871.91;;;28.31;30.96
56630;BME280;42502;40.732;-74.254;2023-04-12T20:58:35;99875.09;;;28.33;31.45
56630;BME280;42502;40.732;-74.254;2023-04-12T21:00:37;99875.50;;;28.35;31.43
56630;BME280;42502;40.732;-74.254;2023-04-12T21:02:41;99869.81;;;28.35;31.18
56630;BME280;42502;40.732;-74.254;2023-04-12T21:04:42;99870.56;;;28.39;30.99
56630;BME280;42502;40.732;-74.254;2023-04-12T21:06:44;99869.34;;;28.40;31.08
56630;BME280;42502;40.732;-74.254;2023-04-12T21:08:47;99866.84;;;28.42;31.45
56630;BME280;42502;40.732;-74.254;2023-04-12T21:10:48;99852.22;;;28.44;31.36
56630;BME280;42502;40.732;-74.254;2023-04-12T21:12:49;99868.84;;;28.45;31.31
56630;BME280;42502;40.732;-74.254;2023-04-12T21:14:51;99867.63;;;28.46;31.40
56630;BME280;42502;40.732;-74.254;2023-04-12T21:16:51;99866.75;;;28.49;31.43
56630;BME280;42502;40.732;-74.254;2023-04-12T21:18:53;99863.50;;;28.51;31.38
56630;BME280;42502;40.732;-74.254;2023-04-12T21:20:57;99869.56;;;28.53;31.46
56630;BME280;42502;40.732;-74.254;2023-04-12T21:22:59;99860.59;;;28.54;31.26
56630;BME280;42502;40.732;-74.254;2023-04-12T21:25:00;99861.41;;;28.55;31.17
56630;BME280;42502;40.732;-74.254;2023-04-12T21:27:00;99860.59;;;28.54;31.42
56630;BME280;42502;40.732;-74.254;2023-04-12T21:29:01;99867.03;;;28.59;31.51
56630;BME280;42502;40.732;-74.254;2023-04-12T21:31:02;99861.34;;;28.59;31.40
56630;BME280;42502;40.732;-74.254;2023-04-12T21:33:04;99869.84;;;28.62;31.53
56630;BME280;42502;40.732;-74.254;2023-04-12T21:35:08;99860.91;;;28.64;31.43
56630;BME280;42502;40.732;-74.254;2023-04-12T21:37:11;99853.53;;;28.66;31.62
56630;BME280;42502;40.732;-74.254;2023-04-12T21:39:12;99862.88;;;28.67;31.48
56630;BME280;42502;40.732;-74.254;2023-04-12T21:41:13;99860.41;;;28.69;31.28
56630;BME280;42502;40.732;-74.254;2023-04-12T21:43:14;99862.88;;;28.67;31.21
56630;BME280;42502;40.732;-74.254;2023-04-12T21:45:15;99858.75;;;28.71;31.41
56630;BME280;42502;40.732;-74.254;2023-04-12T21:47:16;99859.09;;;28.74;31.10
56630;BME280;42502;40.732;-74.254;2023-04-12T21:49:18;99862.75;;;28.74;31.68
56630;BME280;42502;40.732;-74.254;2023-04-12T21:51:20;99861.09;;;28.77;31.51
56630;BME280;42502;40.732;-74.254;2023-04-12T21:53:22;99853.34;;;28.77;31.63
56630;BME280;42502;40.732;-74.254;2023-04-12T21:55:25;99858.59;;;28.79;31.26
56630;BME280;42502;40.732;-74.254;2023-04-12T21:57:31;99859.78;;;28.81;31.17
56630;BME280;42502;40.732;-74.254;2023-04-12T21:59:33;99856.94;;;28.81;31.63
56630;BME280;42502;40.732;-74.254;2023-04-12T22:01:33;99860.97;;;28.84;31.44
56630;BME280;42502;40.732;-74.254;2023-04-12T22:03:35;99863.38;;;28.85;31.53
56630;BME280;42502;40.732;-74.254;2023-04-12T22:05:36;99865.00;;;28.86;31.31
56630;BME280;42502;40.732;-74.254;2023-04-12T22:07:39;99860.47;;;28.89;31.32
56630;BME280;42502;40.732;-74.254;2023-04-12T22:09:40;99862.09;;;28.90;31.56
56630;BME280;42502;40.732;-74.254;2023-04-12T22:11:41;99846.69;;;28.87;31.44
56630;BME280;42502;40.732;-74.254;2023-04-12T22:13:42;99859.25;;;28.90;31.77
56630;BME280;42502;40.732;-74.254;2023-04-12T22:15:45;99868.13;;;28.92;31.66
56630;BME280;42502;40.732;-74.254;2023-04-12T22:17:46;99860.78;;;28.95;31.32
56630;BME280;42502;40.732;-74.254;2023-04-12T22:19:47;99862.41;;;28.96;31.36
56630;BME280;42502;40.732;-74.254;2023-04-12T22:21:48;99864.44;;;28.95;31.30
56630;BME280;42502;40.732;-74.254;2023-04-12T22:23:49;99864.38;;;28.99;31.36
56630;BME280;42502;40.732;-74.254;2023-04-12T22:25:52;99859.91;;;28.98;31.76
56630;BME280;42502;40.732;-74.254;2023-04-12T22:27:57;99859.06;;;29.01;31.79
56630;BME280;42502;40.732;-74.254;2023-04-12T22:29:58;99861.47;;;29.02;31.34
56630;BME280;42502;40.732;-74.254;2023-04-12T22:32:00;99868.78;;;29.03;31.83
56630;BME280;42502;40.732;-74.254;2023-04-12T22:34:01;99865.94;;;29.03;31.83
56630;BME280;42502;40.732;-74.254;2023-04-12T22:36:04;99870.34;;;29.04;31.75
56630;BME280;42502;40.732;-74.254;2023-04-12T22:38:05;99873.63;;;29.03;31.82
56630;BME280;42502;40.732;-74.254;2023-04-12T22:40:06;99878.47;;;29.06;31.30
56630;BME280;42502;40.732;-74.254;2023-04-12T22:42:13;99874.38;;;29.07;31.80
56630;BME280;42502;40.732;-74.254;2023-04-12T22:44:19;99876.78;;;29.09;31.45
56630;BME280;42502;40.732;-74.254;2023-04-12T22:46:23;99870.31;;;29.08;31.32
56630;BME280;42502;40.732;-74.254;2023-04-12T22:48:24;99871.09;;;29.09;31.54
56630;BME280;42502;40.732;-74.254;2023-04-12T22:50:24;99878.41;;;29.10;31.64
56630;BME280;42502;40.732;-74.254;2023-04-12T22:52:26;99880.00;;;29.11;31.57
56630;BME280;42502;40.732;-74.254;2023-04-12T22:54:29;99874.31;;;29.11;31.79
56630;BME280;42502;40.732;-74.254;2023-04-12T22:56:30;99876.72;;;29.12;31.57
56630;BME280;42502;40.732;-74.254;2023-04-12T22:58:31;99881.63;;;29.12;31.38
56630;BME280;42502;40.732;-74.254;2023-04-12T23:00:32;99882.41;;;29.12;31.49
56630;BME280;42502;40.732;-74.254;2023-04-12T23:02:34;99880.38;;;29.13;31.80
56630;BME280;42502;40.732;-74.254;2023-04-12T23:04:35;99888.50;;;29.14;31.58
56630;BME280;42502;40.732;-74.254;2023-04-12T23:06:38;99890.53;;;29.14;31.37
56630;BME280;42502;40.732;-74.254;2023-04-12T23:08:39;99889.28;;;29.15;31.37
56630;BME280;42502;40.732;-74.254;2023-04-12T23:10:40;99874.03;;;29.05;31.81
56630;BME280;42502;40.732;-74.254;2023-04-12T23:12:42;99890.91;;;29.16;31.43
56630;BME280;42502;40.732;-74.254;2023-04-12T23:14:42;99892.94;;;29.15;31.46
56630;BME280;42502;40.732;-74.254;2023-04-12T23:16:44;99903.50;;;29.15;31.21
56630;BME280;42502;40.732;-74.254;2023-04-12T23:18:45;99894.53;;;29.16;31.80
56630;BME280;42502;40.732;-74.254;2023-04-12T23:20:47;99901.84;;;29.17;31.76
56630;BME280;42502;40.732;-74.254;2023-04-12T23:22:50;99895.41;;;29.13;31.60
56630;BME280;42502;40.732;-74.254;2023-04-12T23:24:58;99897.00;;;29.14;31.74
56630;BME280;42502;40.732;-74.254;2023-04-12T23:27:00;99902.63;;;29.18;31.76
56630;BME280;42502;40.732;-74.254;2023-04-12T23:29:02;99906.72;;;29.17;31.42
56630;BME280;42502;40.732;-74.254;2023-04-12T23:31:03;99908.31;;;29.18;31.86
56630;BME280;42502;40.732;-74.254;2023-04-12T23:33:06;99907.09;;;29.19;31.56
56630;BME280;42502;40.732;-74.254;2023-04-12T23:35:08;99908.31;;;29.18;31.47
56630;BME280;42502;40.732;-74.254;2023-04-12T23:37:09;99912.00;;;29.18;31.80
56630;BME280;42502;40.732;-74.254;2023-04-12T23:39:10;99914.84;;;29.18;31.43
56630;BME280;42502;40.732;-74.254;2023-04-12T23:41:11;99911.72;;;29.09;31.38
56630;BME280;42502;40.732;-74.254;2023-04-12T23:43:12;99920.56;;;29.15;31.94
56630;BME280;42502;40.732;-74.254;2023-04-12T23:45:13;99918.53;;;29.15;31.44
56630;BME280;42502;40.732;-74.254;2023-04-12T23:47:14;99927.00;;;29.19;31.67
56630;BME280;42502;40.732;-74.254;2023-04-12T23:49:15;99922.09;;;29.19;31.50
56630;BME280;42502;40.732;-74.254;2023-04-12T23:51:16;99927.00;;;29.19;31.34
56630;BME280;42502;40.732;-74.254;2023-04-12T23:53:17;99923.41;;;29.15;31.56
56630;BME280;42502;40.732;-74.254;2023-04-12T23:55:18;99924.94;;;29.19;31.47
56630;BME280;42502;40.732;-74.254;2023-04-12T23:57:19;99934.31;;;29.20;31.85